Time;durP1;ratioP1;P1;durP2;ratioP2;P2;SDS_P1;SDS_P2;PMS_P1;PMS_P2;Temp;Humidity;BMP_temperature;BMP_pressure;BME280_temperature;BME280_humidity;BME280_pressure;Samples;Min_cycle;Max_cycle;Signal;HPM_P1;HPM_P2
2022/07/13 00:00:45;;;;;;;6.40;2.80;;;;;;;;;;5303824;28;20654;-69
2022/07/13 00:03:16;;;;;;;5.47;3.63;;;;;;;;;;5304612;28;20510;-69
2022/07/13 00:05:48;;;;;;;8.70;3.03;;;;;;;;;;5304535;28;20294;-70
2022/07/13 00:08:19;;;;;;;5.93;3.03;;;;;;;;;;5303500;28;20020;-70
2022/07/13 00:10:50;;;;;;;8.63;2.75;;;;;;;;;;5304732;28;20016;-70
2022/07/13 00:13:21;;;;;;;6.85;3.03;;;;;;;;;;5303972;28;20024;-70
2022/07/13 00:15:52;;;;;;;4.77;2.70;;;;;;;;;;5304195;28;20099;-70
2022/07/13 00:18:24;;;;;;;5.40;2.83;;;;;;;;;;5304090;28;20262;-70
2022/07/13 00:20:55;;;;;;;5.30;2.80;;;;;;;;;;5303574;28;20079;-70
2022/07/13 00:23:26;;;;;;;6.78;2.60;;;;;;;;;;5303717;28;20024;-70
2022/07/13 00:25:57;;;;;;;6.47;2.67;;;;;;;;;;5304679;28;20028;-70
2022/07/13 00:28:28;;;;;;;5.37;2.43;;;;;;;;;;5303182;28;20020;-70
2022/07/13 00:31:00;;;;;;;5.20;2.13;;;;;;;;;;5303930;28;20258;-70
2022/07/13 00:33:31;;;;;;;4.43;2.17;;;;;;;;;;5303991;28;20111;-70
2022/07/13 00:36:02;;;;;;;3.65;1.90;;;;;;;;;;5301987;28;20527;-70
2022/07/13 00:38:36;;;;;;;6.32;2.63;;;;;;;;;;5303876;28;20098;-70
2022/07/13 00:41:08;;;;;;;4.93;2.15;;;;;;;;;;5303939;28;20024;-70
2022/07/13 00:43:39;;;;;;;5.90;2.00;;;;;;;;;;5302981;28;20088;-70
2022/07/13 00:46:10;;;;;;;3.90;2.07;;;;;;;;;;5303658;28;20031;-70
2022/07/13 00:48:42;;;;;;;7.20;1.63;;;;;;;;;;5302848;28;20602;-70
2022/07/13 00:51:13;;;;;;;4.18;1.92;;;;;;;;;;5303947;28;20148;-70
2022/07/13 00:53:44;;;;;;;3.30;1.50;;;;;;;;;;5303645;28;20024;-70
2022/07/13 00:56:15;;;;;;;4.07;1.77;;;;;;;;;;5302803;28;20023;-69
2022/07/13 00:58:47;;;;;;;4.18;1.67;;;;;;;;;;5303408;28;20016;-69
2022/07/13 01:01:18;;;;;;;4.00;1.67;;;;;;;;;;5303218;28;20338;-70
2022/07/13 01:03:49;;;;;;;4.57;1.60;;;;;;;;;;5302816;28;20605;-70
2022/07/13 01:06:20;;;;;;;9.45;1.90;;;;;;;;;;5302954;28;20466;-70
2022/07/13 01:08:52;;;;;;;5.13;1.50;;;;;;;;;;5303583;28;20475;-69
2022/07/13 01:11:23;;;;;;;5.03;1.57;;;;;;;;;;5302087;28;20043;-70
2022/07/13 01:13:55;;;;;;;3.72;1.13;;;;;;;;;;5303704;28;20355;-70
2022/07/13 01:16:26;;;;;;;5.07;1.40;;;;;;;;;;5302947;28;20013;-70
2022/07/13 01:18:58;;;;;;;3.50;1.53;;;;;;;;;;5302716;28;20023;-70
2022/07/13 01:21:29;;;;;;;5.03;1.20;;;;;;;;;;5302676;28;20304;-70
2022/07/13 01:24:00;;;;;;;5.00;1.30;;;;;;;;;;5302107;28;20468;-70
2022/07/13 01:26:31;;;;;;;5.25;1.30;;;;;;;;;;5303079;28;20020;-69
2022/07/13 01:29:03;;;;;;;7.28;1.40;;;;;;;;;;5303017;28;20034;-70
2022/07/13 01:31:38;;;;;;;3.05;0.90;;;;;;;;;;5302104;28;20023;-70
2022/07/13 01:34:09;;;;;;;4.32;1.50;;;;;;;;;;5302780;28;20024;-70
2022/07/13 01:36:40;;;;;;;3.25;1.33;;;;;;;;;;5302805;28;20027;-70
2022/07/13 01:39:11;;;;;;;4.78;1.00;;;;;;;;;;5302175;28;20048;-70
2022/07/13 01:41:43;;;;;;;1.90;0.97;;;;;;;;;;5302775;28;20081;-70
2022/07/13 01:44:15;;;;;;;4.20;1.40;;;;;;;;;;5302767;28;20036;-69
2022/07/13 01:46:46;;;;;;;4.63;1.27;;;;;;;;;;5301469;28;20040;-69
2022/07/13 01:49:17;;;;;;;3.60;1.00;;;;;;;;;;5302746;28;20043;-70
2022/07/13 01:51:48;;;;;;;3.47;1.07;;;;;;;;;;5302592;28;20057;-70
2022/07/13 01:54:19;;;;;;;5.32;1.00;;;;;;;;;;5301389;28;20361;-70
2022/07/13 01:56:50;;;;;;;4.82;1.30;;;;;;;;;;5302878;28;20462;-71
2022/07/13 01:59:22;;;;;;;4.55;1.35;;;;;;;;;;5301420;28;20085;-70
2022/07/13 02:01:53;;;;;;;6.97;1.15;;;;;;;;;;5302836;28;20016;-69
2022/07/13 02:04:24;;;;;;;3.80;1.30;;;;;;;;;;5302196;28;20028;-69
2022/07/13 02:06:55;;;;;;;5.07;1.20;;;;;;;;;;5302076;28;20012;-69
2022/07/13 02:09:26;;;;;;;2.63;0.82;;;;;;;;;;5302125;28;20023;-69
2022/07/13 02:11:58;;;;;;;2.20;1.10;;;;;;;;;;5302601;28;20050;-69
2022/07/13 02:14:29;;;;;;;3.78;1.20;;;;;;;;;;5301346;28;20380;-70
2022/07/13 02:17:00;;;;;;;2.47;1.00;;;;;;;;;;5302362;28;20016;-70
2022/07/13 02:19:31;;;;;;;4.20;1.65;;;;;;;;;;5302268;28;20313;-70
2022/07/13 02:22:02;;;;;;;4.32;1.15;;;;;;;;;;5301264;28;20040;-70
2022/07/13 02:24:34;;;;;;;3.47;0.93;;;;;;;;;;5302244;28;20046;-70
2022/07/13 02:27:05;;;;;;;3.00;1.10;;;;;;;;;;5301750;28;20024;-70
2022/07/13 02:29:36;;;;;;;3.83;1.05;;;;;;;;;;5302210;28;20023;-69
2022/07/13 02:32:07;;;;;;;4.43;1.45;;;;;;;;;;5302230;28;20024;-70
2022/07/13 02:34:39;;;;;;;3.37;1.30;;;;;;;;;;5301168;28;20020;-69
2022/07/13 02:37:11;;;;;;;5.97;1.83;;;;;;;;;;5302331;28;20265;-70
2022/07/13 02:39:42;;;;;;;3.30;1.27;;;;;;;;;;5302109;28;20020;-69
2022/07/13 02:42:13;;;;;;;4.10;1.10;;;;;;;;;;5301431;28;20016;-70
2022/07/13 02:44:45;;;;;;;3.67;1.00;;;;;;;;;;5301960;28;20040;-69
2022/07/13 02:47:16;;;;;;;4.90;0.93;;;;;;;;;;5301812;28;20022;-69
2022/07/13 02:49:47;;;;;;;5.30;1.20;;;;;;;;;;5301103;28;20024;-69
2022/07/13 02:52:18;;;;;;;3.35;1.17;;;;;;;;;;5301537;28;20685;-70
2022/07/13 02:54:49;;;;;;;2.08;1.08;;;;;;;;;;5302232;28;20481;-69
2022/07/13 02:57:20;;;;;;;7.17;1.00;;;;;;;;;;5300811;28;20520;-69
2022/07/13 02:59:52;;;;;;;5.57;1.20;;;;;;;;;;5305482;28;20307;-69
2022/07/13 03:02:23;;;;;;;3.80;1.10;;;;;;;;;;5305025;28;20262;-69
2022/07/13 03:04:54;;;;;;;7.10;1.30;;;;;;;;;;5306160;28;20024;-69
2022/07/13 03:07:25;;;;;;;3.70;1.40;;;;;;;;;;5305544;28;20023;-69
2022/07/13 03:09:57;;;;;;;3.87;1.23;;;;;;;;;;5305248;28;20047;-69
2022/07/13 03:12:28;;;;;;;4.72;0.95;;;;;;;;;;5305246;28;20262;-69
2022/07/13 03:14:59;;;;;;;2.33;1.20;;;;;;;;;;5305769;28;20020;-70
2022/07/13 03:17:30;;;;;;;3.65;1.05;;;;;;;;;;5305158;28;20016;-70
2022/07/13 03:20:01;;;;;;;2.57;0.80;;;;;;;;;;5305474;28;20016;-70
2022/07/13 03:22:33;;;;;;;6.70;1.10;;;;;;;;;;5305414;28;20349;-69
2022/07/13 03:25:04;;;;;;;2.85;0.90;;;;;;;;;;5304916;28;20024;-70
2022/07/13 03:27:35;;;;;;;4.25;0.95;;;;;;;;;;5305325;28;20023;-69
2022/07/13 03:30:08;;;;;;;2.33;0.90;;;;;;;;;;5305516;28;20074;-69
2022/07/13 03:32:39;;;;;;;2.35;0.80;;;;;;;;;;5304561;28;20096;-70
2022/07/13 03:35:10;;;;;;;6.30;1.15;;;;;;;;;;5305225;28;20047;-70
2022/07/13 03:37:41;;;;;;;2.60;0.90;;;;;;;;;;5304395;28;20031;-69
2022/07/13 03:40:12;;;;;;;5.32;1.00;;;;;;;;;;5305128;28;20459;-69
2022/07/13 03:42:44;;;;;;;7.03;1.33;;;;;;;;;;5304925;28;20459;-69
2022/07/13 03:45:15;;;;;;;5.18;0.93;;;;;;;;;;5304147;28;20458;-68
2022/07/13 03:47:46;;;;;;;2.88;1.17;;;;;;;;;;5304933;28;20430;-69
2022/07/13 03:50:17;;;;;;;4.47;1.40;;;;;;;;;;5305155;28;20016;-69
2022/07/13 03:52:48;;;;;;;5.72;1.08;;;;;;;;;;5304484;28;20012;-69
2022/07/13 03:55:20;;;;;;;2.65;1.30;;;;;;;;;;5304622;28;20489;-70
2022/07/13 03:57:51;;;;;;;3.72;1.00;;;;;;;;;;5305191;28;20046;-69
2022/07/13 04:00:22;;;;;;;4.30;1.38;;;;;;;;;;5303904;28;20019;-69
2022/07/13 04:02:53;;;;;;;2.50;0.90;;;;;;;;;;5305079;28;20051;-70
2022/07/13 04:05:25;;;;;;;4.53;1.17;;;;;;;;;;5304495;28;20050;-70
2022/07/13 04:07:56;;;;;;;4.57;1.30;;;;;;;;;;5304166;28;20274;-70
2022/07/13 04:10:27;;;;;;;7.45;1.33;;;;;;;;;;5303980;28;20024;-69
2022/07/13 04:12:58;;;;;;;3.27;1.50;;;;;;;;;;5303974;28;20020;-69
2022/07/13 04:15:30;;;;;;;5.18;1.73;;;;;;;;;;5304481;28;20353;-70
2022/07/13 04:18:01;;;;;;;9.07;2.08;;;;;;;;;;5304336;28;20016;-70
2022/07/13 04:20:32;;;;;;;6.35;1.13;;;;;;;;;;5303496;28;20119;-70
2022/07/13 04:23:04;;;;;;;4.45;1.40;;;;;;;;;;5304142;28;20024;-70
2022/07/13 04:25:35;;;;;;;5.97;1.13;;;;;;;;;;5304468;28;20027;-70
2022/07/13 04:28:06;;;;;;;5.07;1.17;;;;;;;;;;5303211;28;20085;-70
2022/07/13 04:30:37;;;;;;;8.77;1.10;;;;;;;;;;5304289;28;20511;-70
2022/07/13 04:33:08;;;;;;;5.43;1.20;;;;;;;;;;5304204;28;20270;-71
2022/07/13 04:35:39;;;;;;;4.80;1.10;;;;;;;;;;5303191;28;20152;-71
2022/07/13 04:38:11;;;;;;;4.63;1.10;;;;;;;;;;5303837;28;20285;-71
2022/07/13 04:40:42;;;;;;;6.97;1.20;;;;;;;;;;5303287;28;20417;-71
2022/07/13 04:43:13;;;;;;;12.07;1.73;;;;;;;;;;5303679;28;20305;-71
2022/07/13 04:45:44;;;;;;;7.27;1.30;;;;;;;;;;5303797;28;20262;-70
2022/07/13 04:48:15;;;;;;;5.00;1.40;;;;;;;;;;5302755;28;20341;-71
2022/07/13 04:50:47;;;;;;;5.82;1.20;;;;;;;;;;5303813;28;20016;-71
2022/07/13 04:53:18;;;;;;;5.50;1.00;;;;;;;;;;5303663;28;20346;-70
2022/07/13 04:55:49;;;;;;;3.20;1.00;;;;;;;;;;5302910;28;20036;-70
2022/07/13 04:58:20;;;;;;;5.47;1.30;;;;;;;;;;5303727;28;20016;-71
2022/07/13 05:00:51;;;;;;;4.70;1.25;;;;;;;;;;5303780;28;20103;-71
2022/07/13 05:03:22;;;;;;;6.70;1.17;;;;;;;;;;5302347;28;20024;-71
2022/07/13 05:05:53;;;;;;;4.00;0.93;;;;;;;;;;5303779;28;20012;-71
2022/07/13 05:08:25;;;;;;;5.03;1.10;;;;;;;;;;5303123;28;20020;-71
2022/07/13 05:10:57;;;;;;;4.90;1.48;;;;;;;;;;5302869;28;20027;-71
2022/07/13 05:13:28;;;;;;;5.25;1.33;;;;;;;;;;5302924;28;20048;-71
2022/07/13 05:15:59;;;;;;;4.35;0.98;;;;;;;;;;5302500;28;20488;-71
2022/07/13 05:18:30;;;;;;;4.72;1.00;;;;;;;;;;5303174;28;20375;-71
2022/07/13 05:21:01;;;;;;;4.78;1.00;;;;;;;;;;5302299;28;20044;-71
2022/07/13 05:23:33;;;;;;;2.17;0.90;;;;;;;;;;5302119;28;20024;-71
2022/07/13 05:26:05;;;;;;;4.70;0.80;;;;;;;;;;5303056;28;20091;-71
2022/07/13 05:28:36;;;;;;;4.22;0.90;;;;;;;;;;5303043;28;20099;-71
2022/07/13 05:31:08;;;;;;;6.57;0.98;;;;;;;;;;5302241;28;20020;-71
2022/07/13 05:33:40;;;;;;;7.68;0.90;;;;;;;;;;5302984;28;20471;-71
2022/07/13 05:36:11;;;;;;;2.58;0.80;;;;;;;;;;5302842;28;20028;-70
2022/07/13 05:38:42;;;;;;;4.20;1.67;;;;;;;;;;5302206;28;20099;-71
2022/07/13 05:41:13;;;;;;;4.20;0.80;;;;;;;;;;5302903;28;20262;-71
2022/07/13 05:43:45;;;;;;;3.40;0.70;;;;;;;;;;5302684;28;20028;-71
2022/07/13 05:46:16;;;;;;;4.72;0.90;;;;;;;;;;5301826;28;20016;-71
2022/07/13 05:48:47;;;;;;;3.65;0.82;;;;;;;;;;5302652;28;20103;-71
2022/07/13 05:51:19;;;;;;;3.75;0.70;;;;;;;;;;5301706;28;20420;-71
2022/07/13 05:53:53;;;;;;;2.63;1.00;;;;;;;;;;5303010;28;20038;-70
2022/07/13 05:56:24;;;;;;;2.63;0.80;;;;;;;;;;5302343;28;20810;-70
2022/07/13 05:58:55;;;;;;;4.70;1.27;;;;;;;;;;5301871;28;20020;-70
2022/07/13 06:01:26;;;;;;;2.53;0.80;;;;;;;;;;5302381;28;20024;-71
2022/07/13 06:03:57;;;;;;;9.17;1.00;;;;;;;;;;5302784;28;20067;-70
2022/07/13 06:06:28;;;;;;;6.78;0.80;;;;;;;;;;5301516;28;20349;-70
2022/07/13 06:09:00;;;;;;;11.33;1.10;;;;;;;;;;5302484;28;20059;-71
2022/07/13 06:11:31;;;;;;;2.67;0.90;;;;;;;;;;5302183;28;20273;-71
2022/07/13 06:14:02;;;;;;;8.43;0.87;;;;;;;;;;5301521;28;20016;-71
2022/07/13 06:16:33;;;;;;;10.23;0.90;;;;;;;;;;5302495;28;20650;-70
2022/07/13 06:19:05;;;;;;;3.75;0.95;;;;;;;;;;5302401;28;20270;-70
2022/07/13 06:21:36;;;;;;;8.18;0.90;;;;;;;;;;5301029;28;20093;-70
2022/07/13 06:24:07;;;;;;;6.03;1.00;;;;;;;;;;5301975;28;20042;-71
2022/07/13 06:26:38;;;;;;;7.63;1.08;;;;;;;;;;5301620;28;20315;-70
2022/07/13 06:29:09;;;;;;;7.05;0.90;;;;;;;;;;5302144;28;20081;-70
2022/07/13 06:31:41;;;;;;;3.40;0.80;;;;;;;;;;5302165;28;20489;-71
2022/07/13 06:34:12;;;;;;;4.97;0.77;;;;;;;;;;5305507;28;20331;-70
2022/07/13 06:36:43;;;;;;;6.00;1.13;;;;;;;;;;5306428;28;20099;-70
2022/07/13 06:39:14;;;;;;;9.88;0.95;;;;;;;;;;5306424;28;20081;-69
2022/07/13 06:41:45;;;;;;;3.90;0.93;;;;;;;;;;5305741;28;20012;-69
2022/07/13 06:44:16;;;;;;;7.73;0.83;;;;;;;;;;5306280;28;20024;-70
2022/07/13 06:46:47;;;;;;;8.32;1.13;;;;;;;;;;5306097;28;20302;-69
2022/07/13 06:49:19;;;;;;;3.88;1.00;;;;;;;;;;5305222;28;20082;-70
2022/07/13 06:51:50;;;;;;;5.47;0.80;;;;;;;;;;5306344;28;20020;-69
2022/07/13 06:54:21;;;;;;;4.37;1.00;;;;;;;;;;5305127;28;20016;-70
2022/07/13 06:56:52;;;;;;;3.00;0.97;;;;;;;;;;5306036;28;20262;-69
2022/07/13 06:59:23;;;;;;;6.45;1.00;;;;;;;;;;5305629;28;20110;-69
2022/07/13 07:01:54;;;;;;;3.83;1.10;;;;;;;;;;5305505;28;20024;-70
2022/07/13 07:04:26;;;;;;;4.43;0.82;;;;;;;;;;5305541;28;20325;-70
2022/07/13 07:06:57;;;;;;;5.10;1.57;;;;;;;;;;5306184;28;20021;-70
2022/07/13 07:09:28;;;;;;;6.57;1.50;;;;;;;;;;5304689;28;20270;-70
2022/07/13 07:11:59;;;;;;;11.77;2.10;;;;;;;;;;5305618;28;20017;-70
2022/07/13 07:14:32;;;;;;;11.10;1.80;;;;;;;;;;5305800;28;20279;-70
2022/07/13 07:17:04;;;;;;;9.20;1.17;;;;;;;;;;5304829;28;20513;-70
2022/07/13 07:19:35;;;;;;;7.35;1.60;;;;;;;;;;5305413;28;20036;-69
2022/07/13 07:22:06;;;;;;;8.07;1.70;;;;;;;;;;5305144;28;20574;-71
2022/07/13 07:24:38;;;;;;;4.40;1.37;;;;;;;;;;5304527;28;20313;-70
2022/07/13 07:27:10;;;;;;;7.30;1.77;;;;;;;;;;5305543;28;20027;-70
2022/07/13 07:29:41;;;;;;;3.55;1.83;;;;;;;;;;5304780;28;20016;-69
2022/07/13 07:32:12;;;;;;;12.53;2.53;;;;;;;;;;5305293;28;20027;-70
2022/07/13 07:34:44;;;;;;;6.00;2.30;;;;;;;;;;5304976;28;20266;-69
2022/07/13 07:37:15;;;;;;;8.53;2.07;;;;;;;;;;5304310;28;20015;-70
2022/07/13 07:39:46;;;;;;;8.18;2.47;;;;;;;;;;5305241;28;20532;-69
2022/07/13 07:42:18;;;;;;;4.38;2.08;;;;;;;;;;5305225;28;20016;-69
2022/07/13 07:44:49;;;;;;;5.75;2.17;;;;;;;;;;5314075;28;20076;-68
2022/07/13 07:47:23;;;;;;;6.83;2.20;;;;;;;;;;5325255;28;20026;-69
2022/07/13 07:49:54;;;;;;;9.50;2.90;;;;;;;;;;5325829;28;20020;-69
2022/07/13 07:52:25;;;;;;;6.40;2.77;;;;;;;;;;5325091;28;20015;-70
2022/07/13 07:54:56;;;;;;;8.70;3.23;;;;;;;;;;5326064;28;20789;-70
2022/07/13 07:57:28;;;;;;;8.50;2.07;;;;;;;;;;5325638;28;20478;-71
2022/07/13 07:59:59;;;;;;;7.33;2.57;;;;;;;;;;5325407;28;20387;-71
2022/07/13 08:02:30;;;;;;;11.30;2.38;;;;;;;;;;5326336;28;20275;-71
2022/07/13 08:05:01;;;;;;;6.63;2.80;;;;;;;;;;5324998;28;20143;-71
2022/07/13 08:07:33;;;;;;;7.65;2.33;;;;;;;;;;5325994;28;20039;-71
2022/07/13 08:10:05;;;;;;;6.93;2.50;;;;;;;;;;5325682;28;20024;-73
2022/07/13 08:12:36;;;;;;;7.65;2.67;;;;;;;;;;5325327;28;20069;-73
2022/07/13 08:15:08;;;;;;;9.93;2.70;;;;;;;;;;5325877;28;20019;-73
2022/07/13 08:17:39;;;;;;;7.15;2.80;;;;;;;;;;5325701;28;20020;-73
2022/07/13 08:20:11;;;;;;;3.90;1.97;;;;;;;;;;5324738;28;20051;-72
2022/07/13 08:22:42;;;;;;;7.85;2.42;;;;;;;;;;5325399;28;20420;-73
2022/07/13 08:25:13;;;;;;;6.90;2.38;;;;;;;;;;5325623;28;20034;-73
2022/07/13 08:27:45;;;;;;;9.90;3.40;;;;;;;;;;5324528;28;20016;-73
2022/07/13 08:30:16;;;;;;;9.80;2.33;;;;;;;;;;5325442;28;20019;-72
2022/07/13 08:32:47;;;;;;;6.15;2.70;;;;;;;;;;5324326;28;20011;-73
2022/07/13 08:40:58;;;;;;;7.65;2.00;;;;;;;;;;5324906;28;20028;-73
2022/07/13 08:43:29;;;;;;;5.80;2.00;;;;;;;;;;5324518;28;20470;-73
2022/07/13 08:46:05;;;;;;;3.73;1.80;;;;;;;;;;5325228;28;20481;-71
2022/07/13 08:48:37;;;;;;;3.78;1.55;;;;;;;;;;5324094;28;20360;-73
2022/07/13 08:51:09;;;;;;;6.18;1.60;;;;;;;;;;5324948;28;20477;-72
2022/07/13 08:53:40;;;;;;;4.88;1.52;;;;;;;;;;5324710;28;20028;-73
2022/07/13 08:56:11;;;;;;;8.88;2.35;;;;;;;;;;5323006;28;20065;-72
2022/07/13 08:58:43;;;;;;;9.38;1.70;;;;;;;;;;5324735;28;20050;-73
2022/07/13 09:01:14;;;;;;;5.00;1.55;;;;;;;;;;5323906;28;20472;-73
2022/07/13 09:03:46;;;;;;;5.38;1.55;;;;;;;;;;5324679;28;20467;-73
2022/07/13 09:06:35;;;;;;;4.90;1.50;;;;;;;;;;5324633;28;20023;-72
2022/07/13 09:09:07;;;;;;;5.18;1.10;;;;;;;;;;5323814;28;20379;-72
2022/07/13 09:11:38;;;;;;;9.57;1.85;;;;;;;;;;5324528;28;20032;-72
2022/07/13 09:14:09;;;;;;;6.07;1.47;;;;;;;;;;5324317;28;20098;-72
2022/07/13 09:16:40;;;;;;;6.53;1.10;;;;;;;;;;5323623;28;20024;-72
2022/07/13 09:19:12;;;;;;;7.93;1.00;;;;;;;;;;5324177;28;20040;-72
2022/07/13 09:21:43;;;;;;;8.88;1.23;;;;;;;;;;5324178;28;20048;-74
2022/07/13 09:24:14;;;;;;;4.47;1.05;;;;;;;;;;5323538;28;20024;-73
2022/07/13 09:26:46;;;;;;;5.00;1.20;;;;;;;;;;5324136;28;20023;-74
2022/07/13 09:29:20;;;;;;;4.20;1.50;;;;;;;;;;5323141;28;20497;-74
2022/07/13 09:31:56;;;;;;;3.40;1.10;;;;;;;;;;5324472;28;20019;-74
2022/07/13 09:34:46;;;;;;;3.95;1.00;;;;;;;;;;5324118;28;20374;-72
2022/07/13 09:37:19;;;;;;;4.28;1.20;;;;;;;;;;5322742;28;20399;-73
2022/07/13 09:39:59;;;;;;;3.67;1.20;;;;;;;;;;5324063;28;20360;-73
2022/07/13 09:42:31;;;;;;;4.20;1.15;;;;;;;;;;5324238;28;20420;-73
2022/07/13 09:47:54;;;;;;;4.18;0.90;;;;;;;;;;5324644;28;20028;-74
2022/07/13 09:50:40;;;;;;;2.42;0.93;;;;;;;;;;5322737;28;20439;-73
2022/07/13 09:53:28;;;;;;;5.32;0.70;;;;;;;;;;5323927;28;20016;-73
2022/07/13 09:56:04;;;;;;;1.73;0.68;;;;;;;;;;5323414;28;20027;-73
2022/07/13 09:58:37;;;;;;;5.35;0.80;;;;;;;;;;5322878;28;20012;-73
2022/07/13 10:01:08;;;;;;;10.10;0.77;;;;;;;;;;5323874;28;20509;-73
2022/07/13 10:03:40;;;;;;;5.93;0.90;;;;;;;;;;5323669;28;20103;-73
2022/07/13 10:06:12;;;;;;;4.65;0.90;;;;;;;;;;5322844;28;20022;-73
2022/07/13 10:08:44;;;;;;;3.30;0.70;;;;;;;;;;5323376;28;20104;-73
2022/07/13 10:11:15;;;;;;;4.90;0.70;;;;;;;;;;5322563;28;20023;-73
2022/07/13 10:13:46;;;;;;;4.88;0.95;;;;;;;;;;5323225;28;20024;-73
2022/07/13 10:16:17;;;;;;;5.50;0.90;;;;;;;;;;5323318;28;20410;-73
2022/07/13 10:18:50;;;;;;;2.00;0.90;;;;;;;;;;5322738;28;20121;-73
2022/07/13 10:21:33;;;;;;;5.40;0.80;;;;;;;;;;5322818;28;20052;-74
2022/07/13 10:24:13;;;;;;;4.20;0.65;;;;;;;;;;5323166;28;20019;-73
2022/07/13 10:26:48;;;;;;;4.80;0.80;;;;;;;;;;5322388;28;20027;-73
2022/07/13 10:29:20;;;;;;;3.83;0.77;;;;;;;;;;5322782;28;20383;-73
2022/07/13 10:31:58;;;;;;;2.20;0.60;;;;;;;;;;5323409;28;20027;-73
2022/07/13 10:34:47;;;;;;;2.70;0.60;;;;;;;;;;5321919;28;20028;-73
2022/07/13 10:37:19;;;;;;;2.85;0.60;;;;;;;;;;5322748;28;20024;-73
2022/07/13 10:40:10;;;;;;;4.75;0.60;;;;;;;;;;5322718;28;20015;-73
2022/07/13 10:42:53;;;;;;;2.47;0.70;;;;;;;;;;5323256;28;20031;-73
2022/07/13 10:45:40;;;;;;;3.25;0.70;;;;;;;;;;5322579;28;20032;-73
2022/07/13 10:48:24;;;;;;;4.10;0.50;;;;;;;;;;5322312;28;20081;-73
2022/07/13 10:50:57;;;;;;;4.70;0.65;;;;;;;;;;5323589;28;20019;-73
2022/07/13 10:53:37;;;;;;;2.33;0.50;;;;;;;;;;5321909;28;20016;-73
2022/07/13 10:56:21;;;;;;;6.00;0.70;;;;;;;;;;5322871;28;20024;-73
2022/07/13 10:58:52;;;;;;;5.72;0.65;;;;;;;;;;5323202;28;20024;-73
2022/07/13 11:01:38;;;;;;;5.33;0.80;;;;;;;;;;5321521;28;20012;-73
2022/07/13 11:04:13;;;;;;;3.95;0.60;;;;;;;;;;5322856;28;20384;-73
2022/07/13 11:07:03;;;;;;;8.18;0.80;;;;;;;;;;5322716;28;20043;-73
2022/07/13 11:09:34;;;;;;;3.75;0.65;;;;;;;;;;5322065;28;20016;-73
2022/07/13 11:12:20;;;;;;;4.20;0.90;;;;;;;;;;5322903;28;20027;-73
2022/07/13 11:14:52;;;;;;;4.85;1.10;;;;;;;;;;5322469;28;20015;-73
2022/07/13 11:17:23;;;;;;;4.50;0.80;;;;;;;;;;5322776;28;20378;-73
2022/07/13 11:19:54;;;;;;;1.30;0.60;;;;;;;;;;5325055;28;20153;-73
2022/07/13 11:25:29;;;;;;;3.63;1.00;;;;;;;;;;5326306;28;20394;-73
2022/07/13 11:28:07;;;;;;;5.47;0.70;;;;;;;;;;5326747;28;20012;-73
2022/07/13 11:30:43;;;;;;;1.73;0.57;;;;;;;;;;5326050;27;20036;-73
2022/07/13 11:33:15;;;;;;;3.83;0.60;;;;;;;;;;5326672;28;20064;-74
2022/07/13 11:35:47;;;;;;;3.17;0.50;;;;;;;;;;5325933;28;20011;-74
2022/07/13 11:38:20;;;;;;;3.97;0.60;;;;;;;;;;5326406;28;20023;-75
2022/07/13 11:40:51;;;;;;;2.92;0.80;;;;;;;;;;5326147;28;20043;-77
2022/07/13 11:43:23;;;;;;;2.33;0.60;;;;;;;;;;5325419;28;20024;-77
2022/07/13 11:45:54;;;;;;;2.07;0.80;;;;;;;;;;5326431;28;20019;-75
2022/07/13 11:48:30;;;;;;;2.30;1.03;;;;;;;;;;5326108;28;20023;-75
2022/07/13 11:51:05;;;;;;;6.20;0.95;;;;;;;;;;5325340;28;20057;-73
2022/07/13 11:53:37;;;;;;;3.38;0.73;;;;;;;;;;5326214;28;20016;-74
2022/07/13 11:56:08;;;;;;;4.93;0.67;;;;;;;;;;5326173;28;20024;-72
2022/07/13 11:58:45;;;;;;;10.88;0.80;;;;;;;;;;5325134;28;20628;-72
2022/07/13 12:01:18;;;;;;;2.83;0.60;;;;;;;;;;5325949;28;20030;-72
2022/07/13 12:03:49;;;;;;;3.20;0.60;;;;;;;;;;5325351;28;20031;-72
2022/07/13 12:06:26;;;;;;;4.30;0.60;;;;;;;;;;5325742;28;20386;-72
2022/07/13 12:08:57;;;;;;;5.03;0.75;;;;;;;;;;5325898;28;20027;-72
2022/07/13 12:11:28;;;;;;;3.90;0.60;;;;;;;;;;5324611;28;20446;-72
2022/07/13 12:13:59;;;;;;;3.55;0.70;;;;;;;;;;5325616;28;20592;-72
2022/07/13 12:16:31;;;;;;;5.53;0.63;;;;;;;;;;5325538;28;20016;-72
2022/07/13 12:19:08;;;;;;;3.28;0.50;;;;;;;;;;5324689;27;20026;-74
2022/07/13 12:21:55;;;;;;;1.75;0.55;;;;;;;;;;5325358;28;20059;-72
2022/07/13 12:24:26;;;;;;;5.82;0.60;;;;;;;;;;5325139;28;20088;-72
2022/07/13 12:26:58;;;;;;;2.05;0.70;;;;;;;;;;5324944;28;20007;-72
2022/07/13 12:29:30;;;;;;;3.97;0.60;;;;;;;;;;5325248;28;20471;-72
2022/07/13 12:32:02;;;;;;;2.58;0.70;;;;;;;;;;5324351;28;20289;-73
2022/07/13 12:34:47;;;;;;;2.40;0.60;;;;;;;;;;5325219;28;20031;-72
2022/07/13 12:37:31;;;;;;;5.43;0.68;;;;;;;;;;5321468;28;20537;-72
2022/07/13 12:40:03;;;;;;;4.55;0.80;;;;;;;;;;5324328;28;20019;-72
2022/07/13 12:42:35;;;;;;;4.03;0.55;;;;;;;;;;5324749;28;20020;-73
2022/07/13 12:45:16;;;;;;;3.45;0.60;;;;;;;;;;5325054;28;20062;-73
2022/07/13 12:47:47;;;;;;;2.35;0.60;;;;;;;;;;5320099;28;20011;-73
2022/07/13 12:50:27;;;;;;;3.60;0.60;;;;;;;;;;5324514;28;20358;-73
2022/07/13 12:53:01;;;;;;;7.00;0.70;;;;;;;;;;5324294;28;20833;-74
2022/07/13 12:55:51;;;;;;;1.70;0.50;;;;;;;;;;5324749;28;20095;-73
2022/07/13 12:58:38;;;;;;;5.22;0.50;;;;;;;;;;5324396;28;20481;-73
2022/07/13 13:01:09;;;;;;;4.03;0.60;;;;;;;;;;5323406;28;20027;-72
2022/07/13 13:03:40;;;;;;;3.17;0.65;;;;;;;;;;5324471;28;20382;-73
2022/07/13 13:06:12;;;;;;;2.73;0.50;;;;;;;;;;5323982;28;20020;-72
2022/07/13 13:08:43;;;;;;;2.63;0.50;;;;;;;;;;5323920;28;20020;-72
2022/07/13 13:11:14;;;;;;;2.67;0.50;;;;;;;;;;5324691;28;20041;-72
2022/07/13 13:13:45;;;;;;;2.85;0.47;;;;;;;;;;5324708;28;20043;-73
2022/07/13 13:16:16;;;;;;;6.03;0.52;;;;;;;;;;5323423;28;20064;-73
2022/07/13 13:18:47;;;;;;;2.67;0.40;;;;;;;;;;5324277;28;20359;-73
2022/07/13 13:21:19;;;;;;;4.00;0.50;;;;;;;;;;5318139;28;20483;-72
2022/07/13 13:23:50;;;;;;;1.33;0.50;;;;;;;;;;5324158;28;20431;-69
2022/07/13 13:26:21;;;;;;;4.20;0.50;;;;;;;;;;5323355;28;20382;-73
2022/07/13 13:31:42;;;;;;;2.35;0.60;;;;;;;;;;5323949;28;20114;-72
2022/07/13 13:34:13;;;;;;;4.60;0.60;;;;;;;;;;5324012;28;20423;-72
2022/07/13 13:36:44;;;;;;;4.10;0.67;;;;;;;;;;5323109;28;20084;-72
2022/07/13 13:39:16;;;;;;;3.23;0.50;;;;;;;;;;5323702;28;20099;-72
2022/07/13 13:41:47;;;;;;;1.85;0.50;;;;;;;;;;5323583;28;20015;-72
2022/07/13 13:44:19;;;;;;;2.00;0.40;;;;;;;;;;5323076;28;20176;-72
2022/07/13 13:46:50;;;;;;;2.38;0.57;;;;;;;;;;5324281;28;20020;-72
2022/07/13 13:49:21;;;;;;;2.20;0.50;;;;;;;;;;5322792;28;20024;-72
2022/07/13 13:51:52;;;;;;;4.85;0.80;;;;;;;;;;5324079;28;20012;-73
2022/07/13 13:54:24;;;;;;;4.47;0.65;;;;;;;;;;5323727;28;20023;-73
2022/07/13 13:56:55;;;;;;;6.18;0.70;;;;;;;;;;5323554;28;20019;-74
2022/07/13 13:59:26;;;;;;;4.38;0.60;;;;;;;;;;5323349;28;20055;-72
2022/07/13 14:01:57;;;;;;;4.30;0.50;;;;;;;;;;5323876;28;20042;-69
2022/07/13 14:04:30;;;;;;;4.07;0.60;;;;;;;;;;5322585;28;20374;-71
2022/07/13 14:07:03;;;;;;;2.63;0.70;;;;;;;;;;5323810;28;20015;-72
2022/07/13 14:09:34;;;;;;;5.57;0.70;;;;;;;;;;5323626;28;20019;-72
2022/07/13 14:12:06;;;;;;;6.33;0.60;;;;;;;;;;5322842;28;20016;-72
2022/07/13 14:14:37;;;;;;;3.28;0.50;;;;;;;;;;5323361;28;20590;-72
2022/07/13 14:17:08;;;;;;;2.67;0.60;;;;;;;;;;5323132;28;20493;-72
2022/07/13 14:19:45;;;;;;;7.88;0.60;;;;;;;;;;5322051;28;20359;-72
2022/07/13 14:22:17;;;;;;;6.03;0.60;;;;;;;;;;5323074;28;20044;-73
2022/07/13 14:24:48;;;;;;;4.50;0.52;;;;;;;;;;5322478;28;20042;-72
2022/07/13 14:27:20;;;;;;;1.98;0.40;;;;;;;;;;5322946;28;20072;-73
2022/07/13 14:29:51;;;;;;;2.65;0.30;;;;;;;;;;5323682;28;20047;-72
2022/07/13 14:32:23;;;;;;;2.20;0.40;;;;;;;;;;5322467;28;20042;-73
2022/07/13 14:34:54;;;;;;;1.90;0.30;;;;;;;;;;5323662;28;20051;-72
2022/07/13 14:37:26;;;;;;;6.47;0.60;;;;;;;;;;5322887;28;20050;-72
2022/07/13 14:39:57;;;;;;;3.25;0.30;;;;;;;;;;5321954;28;20462;-71
2022/07/13 14:42:28;;;;;;;3.60;0.40;;;;;;;;;;5322883;28;20164;-71
2022/07/13 14:45:00;;;;;;;2.58;0.40;;;;;;;;;;5323149;28;20106;-72
2022/07/13 14:47:31;;;;;;;1.70;0.40;;;;;;;;;;5322505;28;20077;-71
2022/07/13 14:50:02;;;;;;;1.60;0.30;;;;;;;;;;5322953;28;20019;-71
2022/07/13 14:52:33;;;;;;;2.55;0.88;;;;;;;;;;5322171;28;20447;-72
2022/07/13 14:55:05;;;;;;;2.83;0.40;;;;;;;;;;5324769;28;20061;-71
2022/07/13 14:57:36;;;;;;;2.50;0.43;;;;;;;;;;5326459;27;20265;-72
2022/07/13 15:00:07;;;;;;;1.70;0.30;;;;;;;;;;5326043;28;20023;-72
2022/07/13 15:02:39;;;;;;;2.60;0.60;;;;;;;;;;5326951;28;20062;-72
2022/07/13 15:05:13;;;;;;;3.85;0.75;;;;;;;;;;5327297;28;20028;-72
2022/07/13 15:07:45;;;;;;;3.95;0.40;;;;;;;;;;5326276;28;20018;-72
2022/07/13 15:10:16;;;;;;;2.75;0.57;;;;;;;;;;5327101;28;20466;-72
2022/07/13 15:12:48;;;;;;;3.13;0.60;;;;;;;;;;5326867;28;20080;-73
2022/07/13 15:15:19;;;;;;;2.50;0.50;;;;;;;;;;5325904;28;20273;-72
2022/07/13 15:17:50;;;;;;;3.65;0.50;;;;;;;;;;5327244;28;20016;-71
2022/07/13 15:20:22;;;;;;;4.83;0.50;;;;;;;;;;5326554;28;20023;-72
2022/07/13 15:22:53;;;;;;;2.88;0.50;;;;;;;;;;5326325;28;20047;-72
2022/07/13 15:25:24;;;;;;;2.77;0.43;;;;;;;;;;5326380;28;20024;-72
2022/07/13 15:27:55;;;;;;;2.73;0.50;;;;;;;;;;5326149;28;20304;-74